sensor_id;sensor_type;location;lat;lon;timestamp;P1;durP1;ratioP1;P2;durP2;ratioP2
19671;SDS011;9983;51.114;13.788;2022-12-19T00:03:20;23.57;;;12.17;;
19671;SDS011;9983;51.114;13.788;2022-12-19T00:08:20;18.40;;;10.27;;
19671;SDS011;9983;51.114;13.788;2022-12-19T00:13:20;22.63;;;12.20;;
19671;SDS011;9983;51.114;13.788;2022-12-19T00:18:21;22.27;;;11.77;;
19671;SDS011;9983;51.114;13.788;2022-12-19T00:23:21;21.73;;;12.23;;
19671;SDS011;9983;51.114;13.788;2022-12-19T00:28:21;21.03;;;11.23;;
19671;SDS011;9983;51.114;13.788;2022-12-19T00:33:22;23.30;;;11.70;;
19671;SDS011;9983;51.114;13.788;2022-12-19T00:38:22;19.93;;;10.77;;
19671;SDS011;9983;51.114;13.788;2022-12-19T00:43:22;20.20;;;10.03;;
19671;SDS011;9983;51.114;13.788;2022-12-19T00:48:23;19.77;;;9.67;;
19671;SDS011;9983;51.114;13.788;2022-12-19T00:53:23;14.00;;;8.20;;
19671;SDS011;9983;51.114;13.788;2022-12-19T00:58:23;20.93;;;9.47;;
19671;SDS011;9983;51.114;13.788;2022-12-19T01:03:24;21.10;;;10.63;;
19671;SDS011;9983;51.114;13.788;2022-12-19T01:08:25;21.80;;;10.77;;
19671;SDS011;9983;51.114;13.788;2022-12-19T01:13:26;18.07;;;9.57;;
19671;SDS011;9983;51.114;13.788;2022-12-19T01:18:28;19.03;;;10.90;;
19671;SDS011;9983;51.114;13.788;2022-12-19T01:23:28;17.23;;;8.27;;
19671;SDS011;9983;51.114;13.788;2022-12-19T01:28:29;27.00;;;11.80;;
19671;SDS011;9983;51.114;13.788;2022-12-19T01:33:30;22.30;;;10.33;;
19671;SDS011;9983;51.114;13.788;2022-12-19T01:38:30;23.57;;;11.07;;
19671;SDS011;9983;51.114;13.788;2022-12-19T01:43:31;24.57;;;12.63;;
19671;SDS011;9983;51.114;13.788;2022-12-19T01:48:52;21.53;;;10.50;;
19671;SDS011;9983;51.114;13.788;2022-12-19T01:53:57;20.50;;;9.90;;
19671;SDS011;9983;51.114;13.788;2022-12-19T01:59:00;16.30;;;8.60;;
19671;SDS011;9983;51.114;13.788;2022-12-19T02:04:03;19.37;;;9.73;;
19671;SDS011;9983;51.114;13.788;2022-12-19T02:09:04;20.33;;;10.00;;
19671;SDS011;9983;51.114;13.788;2022-12-19T02:14:05;18.43;;;9.17;;
19671;SDS011;9983;51.114;13.788;2022-12-19T02:30:07;15.47;;;7.73;;
19671;SDS011;9983;51.114;13.788;2022-12-19T02:35:55;16.30;;;8.57;;
19671;SDS011;9983;51.114;13.788;2022-12-19T02:40:41;13.10;;;7.60;;
19671;SDS011;9983;51.114;13.788;2022-12-19T02:45:50;13.80;;;7.57;;
19671;SDS011;9983;51.114;13.788;2022-12-19T02:50:51;17.83;;;9.13;;
19671;SDS011;9983;51.114;13.788;2022-12-19T03:01:51;17.83;;;8.17;;
19671;SDS011;9983;51.114;13.788;2022-12-19T03:12:12;16.37;;;8.00;;
19671;SDS011;9983;51.114;13.788;2022-12-19T03:17:18;19.07;;;8.53;;
19671;SDS011;9983;51.114;13.788;2022-12-19T03:22:18;19.60;;;9.00;;
19671;SDS011;9983;51.114;13.788;2022-12-19T03:27:21;20.10;;;8.40;;
19671;SDS011;9983;51.114;13.788;2022-12-19T03:32:28;17.07;;;7.47;;
19671;SDS011;9983;51.114;13.788;2022-12-19T03:37:30;14.90;;;7.33;;
19671;SDS011;9983;51.114;13.788;2022-12-19T03:42:37;15.23;;;8.13;;
19671;SDS011;9983;51.114;13.788;2022-12-19T03:47:59;18.53;;;9.00;;
19671;SDS011;9983;51.114;13.788;2022-12-19T03:58:33;17.20;;;8.63;;
19671;SDS011;9983;51.114;13.788;2022-12-19T04:03:37;16.90;;;8.90;;
19671;SDS011;9983;51.114;13.788;2022-12-19T04:08:37;17.23;;;9.03;;
19671;SDS011;9983;51.114;13.788;2022-12-19T04:13:40;18.27;;;9.40;;
19671;SDS011;9983;51.114;13.788;2022-12-19T04:18:51;19.37;;;9.43;;
19671;SDS011;9983;51.114;13.788;2022-12-19T04:23:56;22.00;;;10.40;;
19671;SDS011;9983;51.114;13.788;2022-12-19T04:29:03;19.67;;;9.87;;
19671;SDS011;9983;51.114;13.788;2022-12-19T04:34:06;22.17;;;10.07;;
19671;SDS011;9983;51.114;13.788;2022-12-19T04:39:07;22.93;;;10.87;;
19671;SDS011;9983;51.114;13.788;2022-12-19T04:44:07;20.83;;;10.03;;
19671;SDS011;9983;51.114;13.788;2022-12-19T04:49:07;17.47;;;8.73;;
19671;SDS011;9983;51.114;13.788;2022-12-19T04:54:08;21.57;;;10.37;;
19671;SDS011;9983;51.114;13.788;2022-12-19T04:59:08;19.77;;;9.93;;
19671;SDS011;9983;51.114;13.788;2022-12-19T05:04:08;24.10;;;11.07;;
19671;SDS011;9983;51.114;13.788;2022-12-19T05:09:09;20.33;;;9.70;;
19671;SDS011;9983;51.114;13.788;2022-12-19T05:14:10;22.00;;;10.93;;
19671;SDS011;9983;51.114;13.788;2022-12-19T05:19:10;14.40;;;7.87;;
19671;SDS011;9983;51.114;13.788;2022-12-19T05:24:11;26.47;;;11.20;;
19671;SDS011;9983;51.114;13.788;2022-12-19T05:29:11;23.60;;;11.57;;
19671;SDS011;9983;51.114;13.788;2022-12-19T05:34:11;24.17;;;10.87;;
19671;SDS011;9983;51.114;13.788;2022-12-19T05:39:12;22.23;;;11.47;;
19671;SDS011;9983;51.114;13.788;2022-12-19T05:44:12;23.75;;;11.13;;
19671;SDS011;9983;51.114;13.788;2022-12-19T05:49:15;23.10;;;11.67;;
19671;SDS011;9983;51.114;13.788;2022-12-19T05:54:15;26.47;;;11.67;;
19671;SDS011;9983;51.114;13.788;2022-12-19T05:59:16;23.80;;;11.07;;
19671;SDS011;9983;51.114;13.788;2022-12-19T06:04:16;24.93;;;11.67;;
19671;SDS011;9983;51.114;13.788;2022-12-19T06:09:16;20.87;;;11.17;;
19671;SDS011;9983;51.114;13.788;2022-12-19T06:14:17;23.47;;;11.53;;
19671;SDS011;9983;51.114;13.788;2022-12-19T06:19:17;28.07;;;13.17;;
19671;SDS011;9983;51.114;13.788;2022-12-19T06:24:17;22.80;;;10.57;;
19671;SDS011;9983;51.114;13.788;2022-12-19T06:29:17;25.07;;;12.63;;
19671;SDS011;9983;51.114;13.788;2022-12-19T06:34:18;27.43;;;12.50;;
19671;SDS011;9983;51.114;13.788;2022-12-19T06:39:18;26.00;;;12.50;;
19671;SDS011;9983;51.114;13.788;2022-12-19T06:44:18;24.00;;;10.77;;
19671;SDS011;9983;51.114;13.788;2022-12-19T06:49:19;29.37;;;14.50;;
19671;SDS011;9983;51.114;13.788;2022-12-19T06:54:19;25.37;;;12.30;;
19671;SDS011;9983;51.114;13.788;2022-12-19T06:59:19;21.90;;;11.07;;
19671;SDS011;9983;51.114;13.788;2022-12-19T07:04:25;30.33;;;13.23;;
19671;SDS011;9983;51.114;13.788;2022-12-19T07:09:28;25.40;;;11.90;;
19671;SDS011;9983;51.114;13.788;2022-12-19T07:14:29;25.63;;;12.20;;
19671;SDS011;9983;51.114;13.788;2022-12-19T07:19:29;25.33;;;12.63;;
19671;SDS011;9983;51.114;13.788;2022-12-19T07:24:31;28.40;;;13.23;;
19671;SDS011;9983;51.114;13.788;2022-12-19T07:29:33;26.40;;;13.87;;
19671;SDS011;9983;51.114;13.788;2022-12-19T07:34:33;20.17;;;10.13;;
19671;SDS011;9983;51.114;13.788;2022-12-19T07:39:34;26.07;;;13.13;;
19671;SDS011;9983;51.114;13.788;2022-12-19T07:44:34;25.37;;;10.90;;
19671;SDS011;9983;51.114;13.788;2022-12-19T07:49:34;25.83;;;12.77;;
19671;SDS011;9983;51.114;13.788;2022-12-19T07:54:35;25.20;;;12.80;;
19671;SDS011;9983;51.114;13.788;2022-12-19T07:59:35;32.53;;;15.20;;
19671;SDS011;9983;51.114;13.788;2022-12-19T08:04:35;26.87;;;13.47;;
19671;SDS011;9983;51.114;13.788;2022-12-19T08:09:36;23.03;;;12.07;;
19671;SDS011;9983;51.114;13.788;2022-12-19T08:14:36;28.50;;;13.80;;
19671;SDS011;9983;51.114;13.788;2022-12-19T08:19:36;27.90;;;13.35;;
19671;SDS011;9983;51.114;13.788;2022-12-19T08:24:36;28.33;;;13.57;;
19671;SDS011;9983;51.114;13.788;2022-12-19T08:29:37;24.25;;;13.10;;
19671;SDS011;9983;51.114;13.788;2022-12-19T08:34:38;27.40;;;13.37;;
19671;SDS011;9983;51.114;13.788;2022-12-19T08:39:39;25.97;;;13.33;;
19671;SDS011;9983;51.114;13.788;2022-12-19T08:44:39;26.63;;;13.03;;
19671;SDS011;9983;51.114;13.788;2022-12-19T08:49:39;27.58;;;14.45;;
19671;SDS011;9983;51.114;13.788;2022-12-19T08:54:40;28.35;;;13.07;;
19671;SDS011;9983;51.114;13.788;2022-12-19T08:59:43;24.23;;;13.55;;
19671;SDS011;9983;51.114;13.788;2022-12-19T09:04:43;26.35;;;13.50;;
19671;SDS011;9983;51.114;13.788;2022-12-19T09:09:44;27.05;;;13.55;;
19671;SDS011;9983;51.114;13.788;2022-12-19T09:14:44;26.40;;;13.80;;
19671;SDS011;9983;51.114;13.788;2022-12-19T09:19:44;27.25;;;14.52;;
19671;SDS011;9983;51.114;13.788;2022-12-19T09:24:45;25.80;;;13.65;;
19671;SDS011;9983;51.114;13.788;2022-12-19T09:29:45;31.77;;;14.63;;
19671;SDS011;9983;51.114;13.788;2022-12-19T09:34:45;31.48;;;14.98;;
19671;SDS011;9983;51.114;13.788;2022-12-19T09:39:46;28.27;;;14.55;;
19671;SDS011;9983;51.114;13.788;2022-12-19T09:50:03;30.20;;;15.35;;
19671;SDS011;9983;51.114;13.788;2022-12-19T09:55:23;25.33;;;14.02;;
19671;SDS011;9983;51.114;13.788;2022-12-19T10:00:28;30.92;;;14.40;;
19671;SDS011;9983;51.114;13.788;2022-12-19T10:11:33;23.33;;;12.45;;
19671;SDS011;9983;51.114;13.788;2022-12-19T10:16:15;30.15;;;15.75;;
19671;SDS011;9983;51.114;13.788;2022-12-19T10:26:53;24.80;;;14.27;;
19671;SDS011;9983;51.114;13.788;2022-12-19T10:32:03;31.00;;;15.68;;
19671;SDS011;9983;51.114;13.788;2022-12-19T10:37:13;27.83;;;15.30;;
19671;SDS011;9983;51.114;13.788;2022-12-19T10:47:40;24.98;;;13.23;;
19671;SDS011;9983;51.114;13.788;2022-12-19T10:52:46;29.98;;;15.60;;
19671;SDS011;9983;51.114;13.788;2022-12-19T10:57:51;24.85;;;14.70;;
19671;SDS011;9983;51.114;13.788;2022-12-19T11:02:51;29.17;;;15.73;;
19671;SDS011;9983;51.114;13.788;2022-12-19T11:13:24;28.75;;;14.98;;
19671;SDS011;9983;51.114;13.788;2022-12-19T11:18:37;22.30;;;12.38;;
19671;SDS011;9983;51.114;13.788;2022-12-19T11:28:49;30.52;;;15.65;;
19671;SDS011;9983;51.114;13.788;2022-12-19T11:33:54;24.17;;;14.15;;
19671;SDS011;9983;51.114;13.788;2022-12-19T11:39:00;29.63;;;15.38;;
19671;SDS011;9983;51.114;13.788;2022-12-19T11:49:25;30.33;;;15.13;;
19671;SDS011;9983;51.114;13.788;2022-12-19T12:00:10;31.58;;;14.80;;
19671;SDS011;9983;51.114;13.788;2022-12-19T12:10:38;31.20;;;15.80;;
19671;SDS011;9983;51.114;13.788;2022-12-19T12:16:08;29.35;;;15.15;;
19671;SDS011;9983;51.114;13.788;2022-12-19T12:31:48;23.63;;;13.05;;
19671;SDS011;9983;51.114;13.788;2022-12-19T12:37:14;27.05;;;14.57;;
19671;SDS011;9983;51.114;13.788;2022-12-19T12:42:46;31.23;;;15.05;;
19671;SDS011;9983;51.114;13.788;2022-12-19T12:48:18;28.67;;;14.82;;
19671;SDS011;9983;51.114;13.788;2022-12-19T12:53:26;26.13;;;14.02;;
19671;SDS011;9983;51.114;13.788;2022-12-19T13:03:51;24.05;;;14.30;;
19671;SDS011;9983;51.114;13.788;2022-12-19T13:19:39;25.80;;;14.38;;
19671;SDS011;9983;51.114;13.788;2022-12-19T13:24:53;28.95;;;15.95;;
19671;SDS011;9983;51.114;13.788;2022-12-19T13:34:59;28.20;;;14.40;;
19671;SDS011;9983;51.114;13.788;2022-12-19T13:40:01;26.95;;;15.60;;
19671;SDS011;9983;51.114;13.788;2022-12-19T13:50:38;31.55;;;15.35;;
19671;SDS011;9983;51.114;13.788;2022-12-19T13:55:40;31.92;;;16.65;;
19671;SDS011;9983;51.114;13.788;2022-12-19T14:00:41;30.85;;;17.40;;
19671;SDS011;9983;51.114;13.788;2022-12-19T14:05:42;32.60;;;17.45;;
19671;SDS011;9983;51.114;13.788;2022-12-19T14:10:43;26.40;;;15.43;;
19671;SDS011;9983;51.114;13.788;2022-12-19T14:15:46;32.17;;;16.13;;
19671;SDS011;9983;51.114;13.788;2022-12-19T14:20:48;27.70;;;16.30;;
19671;SDS011;9983;51.114;13.788;2022-12-19T14:25:51;28.23;;;15.73;;
19671;SDS011;9983;51.114;13.788;2022-12-19T14:30:55;32.63;;;17.02;;
19671;SDS011;9983;51.114;13.788;2022-12-19T14:35:59;33.03;;;17.02;;
19671;SDS011;9983;51.114;13.788;2022-12-19T14:41:00;33.22;;;17.08;;
19671;SDS011;9983;51.114;13.788;2022-12-19T14:51:33;31.48;;;16.33;;
19671;SDS011;9983;51.114;13.788;2022-12-19T15:01:42;31.73;;;16.33;;
19671;SDS011;9983;51.114;13.788;2022-12-19T15:06:52;33.45;;;16.63;;
19671;SDS011;9983;51.114;13.788;2022-12-19T15:12:02;31.83;;;17.00;;
19671;SDS011;9983;51.114;13.788;2022-12-19T15:17:29;28.75;;;16.33;;
19671;SDS011;9983;51.114;13.788;2022-12-19T15:22:29;29.13;;;14.93;;
19671;SDS011;9983;51.114;13.788;2022-12-19T15:27:29;31.52;;;15.90;;
19671;SDS011;9983;51.114;13.788;2022-12-19T15:32:30;32.15;;;16.27;;
19671;SDS011;9983;51.114;13.788;2022-12-19T15:37:30;30.58;;;16.40;;
19671;SDS011;9983;51.114;13.788;2022-12-19T15:42:31;33.20;;;16.83;;
19671;SDS011;9983;51.114;13.788;2022-12-19T15:47:34;32.70;;;16.88;;
19671;SDS011;9983;51.114;13.788;2022-12-19T15:52:36;31.65;;;16.70;;
19671;SDS011;9983;51.114;13.788;2022-12-19T15:57:36;32.33;;;16.55;;
19671;SDS011;9983;51.114;13.788;2022-12-19T16:02:39;28.13;;;16.55;;
19671;SDS011;9983;51.114;13.788;2022-12-19T16:07:40;25.73;;;14.65;;
19671;SDS011;9983;51.114;13.788;2022-12-19T16:12:44;30.30;;;15.90;;
19671;SDS011;9983;51.114;13.788;2022-12-19T16:17:48;28.90;;;15.80;;
19671;SDS011;9983;51.114;13.788;2022-12-19T16:22:48;27.92;;;14.60;;
19671;SDS011;9983;51.114;13.788;2022-12-19T16:27:50;26.30;;;14.93;;
19671;SDS011;9983;51.114;13.788;2022-12-19T16:32:55;25.83;;;14.82;;
19671;SDS011;9983;51.114;13.788;2022-12-19T16:37:55;27.05;;;16.08;;
19671;SDS011;9983;51.114;13.788;2022-12-19T16:42:58;28.83;;;16.10;;
19671;SDS011;9983;51.114;13.788;2022-12-19T16:48:15;26.10;;;15.55;;
19671;SDS011;9983;51.114;13.788;2022-12-19T16:53:18;24.23;;;14.13;;
19671;SDS011;9983;51.114;13.788;2022-12-19T16:58:19;24.13;;;14.77;;
19671;SDS011;9983;51.114;13.788;2022-12-19T17:03:26;24.35;;;14.65;;
19671;SDS011;9983;51.114;13.788;2022-12-19T17:08:30;25.92;;;15.80;;
19671;SDS011;9983;51.114;13.788;2022-12-19T17:13:31;29.02;;;16.55;;
19671;SDS011;9983;51.114;13.788;2022-12-19T17:18:33;26.85;;;16.08;;
19671;SDS011;9983;51.114;13.788;2022-12-19T17:23:34;28.05;;;15.27;;
19671;SDS011;9983;51.114;13.788;2022-12-19T17:28:34;31.25;;;17.27;;
19671;SDS011;9983;51.114;13.788;2022-12-19T17:33:36;32.70;;;17.13;;
19671;SDS011;9983;51.114;13.788;2022-12-19T17:38:38;27.02;;;15.25;;
19671;SDS011;9983;51.114;13.788;2022-12-19T17:43:38;25.33;;;15.50;;
19671;SDS011;9983;51.114;13.788;2022-12-19T17:48:39;23.15;;;14.98;;
19671;SDS011;9983;51.114;13.788;2022-12-19T17:53:39;24.30;;;15.27;;
19671;SDS011;9983;51.114;13.788;2022-12-19T17:58:39;29.30;;;15.88;;
19671;SDS011;9983;51.114;13.788;2022-12-19T18:03:39;26.35;;;15.57;;
19671;SDS011;9983;51.114;13.788;2022-12-19T18:08:40;25.35;;;14.77;;
19671;SDS011;9983;51.114;13.788;2022-12-19T18:13:40;28.60;;;15.90;;
19671;SDS011;9983;51.114;13.788;2022-12-19T18:18:41;30.10;;;16.73;;
19671;SDS011;9983;51.114;13.788;2022-12-19T18:23:41;19.80;;;10.30;;
19671;SDS011;9983;51.114;13.788;2022-12-19T18:28:42;27.33;;;16.73;;
19671;SDS011;9983;51.114;13.788;2022-12-19T18:33:44;26.15;;;16.63;;
19671;SDS011;9983;51.114;13.788;2022-12-19T18:38:47;25.35;;;15.63;;
19671;SDS011;9983;51.114;13.788;2022-12-19T18:43:47;31.02;;;16.20;;
19671;SDS011;9983;51.114;13.788;2022-12-19T18:48:48;27.13;;;15.95;;
19671;SDS011;9983;51.114;13.788;2022-12-19T18:53:48;26.30;;;15.77;;
19671;SDS011;9983;51.114;13.788;2022-12-19T18:58:49;27.80;;;15.40;;
19671;SDS011;9983;51.114;13.788;2022-12-19T19:03:51;28.35;;;16.05;;
19671;SDS011;9983;51.114;13.788;2022-12-19T19:08:53;25.20;;;14.02;;
19671;SDS011;9983;51.114;13.788;2022-12-19T19:13:55;24.35;;;15.18;;
19671;SDS011;9983;51.114;13.788;2022-12-19T19:18:56;30.27;;;16.30;;
19671;SDS011;9983;51.114;13.788;2022-12-19T19:23:59;29.13;;;16.25;;
19671;SDS011;9983;51.114;13.788;2022-12-19T19:29:04;25.73;;;15.25;;
19671;SDS011;9983;51.114;13.788;2022-12-19T19:34:07;25.17;;;14.73;;
19671;SDS011;9983;51.114;13.788;2022-12-19T19:39:11;27.33;;;15.88;;
19671;SDS011;9983;51.114;13.788;2022-12-19T19:44:12;23.70;;;14.30;;
19671;SDS011;9983;51.114;13.788;2022-12-19T19:49:13;26.23;;;15.40;;
19671;SDS011;9983;51.114;13.788;2022-12-19T19:54:13;26.88;;;15.68;;
19671;SDS011;9983;51.114;13.788;2022-12-19T19:59:13;24.17;;;15.02;;
19671;SDS011;9983;51.114;13.788;2022-12-19T20:04:14;22.13;;;13.93;;
19671;SDS011;9983;51.114;13.788;2022-12-19T20:09:14;23.45;;;14.32;;
19671;SDS011;9983;51.114;13.788;2022-12-19T20:14:14;25.17;;;14.85;;
19671;SDS011;9983;51.114;13.788;2022-12-19T20:19:15;21.08;;;13.50;;
19671;SDS011;9983;51.114;13.788;2022-12-19T20:24:15;23.42;;;14.52;;
19671;SDS011;9983;51.114;13.788;2022-12-19T20:29:15;21.63;;;13.02;;
19671;SDS011;9983;51.114;13.788;2022-12-19T20:34:16;24.20;;;14.10;;
19671;SDS011;9983;51.114;13.788;2022-12-19T20:39:16;27.15;;;15.07;;
19671;SDS011;9983;51.114;13.788;2022-12-19T20:44:20;26.05;;;14.55;;
19671;SDS011;9983;51.114;13.788;2022-12-19T20:49:21;28.05;;;15.23;;
19671;SDS011;9983;51.114;13.788;2022-12-19T20:54:22;24.50;;;14.48;;
19671;SDS011;9983;51.114;13.788;2022-12-19T20:59:22;26.67;;;15.82;;
19671;SDS011;9983;51.114;13.788;2022-12-19T21:04:22;26.10;;;14.95;;
19671;SDS011;9983;51.114;13.788;2022-12-19T21:09:23;27.17;;;15.80;;
19671;SDS011;9983;51.114;13.788;2022-12-19T21:14:23;26.85;;;15.95;;
19671;SDS011;9983;51.114;13.788;2022-12-19T21:19:23;27.73;;;15.73;;
19671;SDS011;9983;51.114;13.788;2022-12-19T21:24:24;25.70;;;15.23;;
19671;SDS011;9983;51.114;13.788;2022-12-19T21:29:24;32.28;;;16.60;;
19671;SDS011;9983;51.114;13.788;2022-12-19T21:34:24;26.85;;;15.60;;
19671;SDS011;9983;51.114;13.788;2022-12-19T21:39:25;27.33;;;16.65;;
19671;SDS011;9983;51.114;13.788;2022-12-19T21:44:25;33.42;;;18.35;;
19671;SDS011;9983;51.114;13.788;2022-12-19T21:49:25;31.50;;;17.52;;
19671;SDS011;9983;51.114;13.788;2022-12-19T21:54:26;30.27;;;17.88;;
19671;SDS011;9983;51.114;13.788;2022-12-19T21:59:26;31.13;;;16.67;;
19671;SDS011;9983;51.114;13.788;2022-12-19T22:04:26;29.75;;;15.27;;
19671;SDS011;9983;51.114;13.788;2022-12-19T22:09:26;25.60;;;16.90;;
19671;SDS011;9983;51.114;13.788;2022-12-19T22:14:27;29.13;;;15.93;;
19671;SDS011;9983;51.114;13.788;2022-12-19T22:19:27;26.40;;;16.17;;
19671;SDS011;9983;51.114;13.788;2022-12-19T22:24:28;25.67;;;14.82;;
19671;SDS011;9983;51.114;13.788;2022-12-19T22:29:28;31.00;;;15.65;;
19671;SDS011;9983;51.114;13.788;2022-12-19T22:34:28;30.55;;;16.33;;
19671;SDS011;9983;51.114;13.788;2022-12-19T22:39:29;25.92;;;14.75;;
19671;SDS011;9983;51.114;13.788;2022-12-19T22:44:29;26.65;;;16.02;;
19671;SDS011;9983;51.114;13.788;2022-12-19T22:49:29;28.20;;;16.13;;
19671;SDS011;9983;51.114;13.788;2022-12-19T22:54:30;29.77;;;16.60;;
19671;SDS011;9983;51.114;13.788;2022-12-19T22:59:30;31.60;;;16.15;;
19671;SDS011;9983;51.114;13.788;2022-12-19T23:04:30;31.48;;;17.05;;
19671;SDS011;9983;51.114;13.788;2022-12-19T23:09:31;28.70;;;16.35;;
19671;SDS011;9983;51.114;13.788;2022-12-19T23:14:31;31.20;;;16.45;;
19671;SDS011;9983;51.114;13.788;2022-12-19T23:19:31;30.63;;;16.35;;
19671;SDS011;9983;51.114;13.788;2022-12-19T23:24:31;33.42;;;17.83;;
19671;SDS011;9983;51.114;13.788;2022-12-19T23:29:32;29.45;;;16.50;;
19671;SDS011;9983;51.114;13.788;2022-12-19T23:34:32;32.38;;;17.27;;
19671;SDS011;9983;51.114;13.788;2022-12-19T23:39:32;30.75;;;17.70;;
19671;SDS011;9983;51.114;13.788;2022-12-19T23:44:33;27.58;;;15.77;;
19671;SDS011;9983;51.114;13.788;2022-12-19T23:49:33;29.35;;;16.73;;
19671;SDS011;9983;51.114;13.788;2022-12-19T23:54:33;25.33;;;14.85;;
19671;SDS011;9983;51.114;13.788;2022-12-19T23:59:34;29.77;;;16.08;;
